createdAt,value
2022-10-31T00:00:02.275Z,41.00
2022-10-31T00:02:28.650Z,37.78
2022-10-31T00:04:56.336Z,32.25
2022-10-31T00:07:22.708Z,35.28
2022-10-31T00:09:49.033Z,38.95
2022-10-31T00:12:15.352Z,36.10
2022-10-31T00:14:41.791Z,32.08
2022-10-31T00:17:08.143Z,35.38
2022-10-31T00:19:34.484Z,35.42
2022-10-31T00:22:00.818Z,43.75
2022-10-31T00:24:27.141Z,39.67
2022-10-31T00:26:53.496Z,47.28
2022-10-31T00:29:19.864Z,41.13
2022-10-31T00:31:46.316Z,43.90
2022-10-31T00:34:14.953Z,36.85
2022-10-31T00:36:41.313Z,53.08
2022-10-31T00:39:07.793Z,47.30
2022-10-31T00:41:34.166Z,46.30
2022-10-31T00:44:00.508Z,43.42
2022-10-31T00:46:26.847Z,44.67
2022-10-31T00:48:53.185Z,43.85
2022-10-31T00:51:19.684Z,44.75
2022-10-31T00:53:46.009Z,51.58
2022-10-31T00:56:12.404Z,45.90
2022-10-31T00:58:38.937Z,46.78
2022-10-31T01:01:05.532Z,45.45
2022-10-31T01:03:33.392Z,51.40
2022-10-31T01:06:02.839Z,53.63
2022-10-31T01:08:29.327Z,52.15
2022-10-31T01:10:59.294Z,52.85
2022-10-31T01:13:25.645Z,50.73
2022-10-31T01:15:56.371Z,53.85
2022-10-31T01:18:22.709Z,57.75
2022-10-31T01:20:57.728Z,50.20
2022-10-31T01:23:24.058Z,54.13
2022-10-31T01:26:00.371Z,47.78
2022-10-31T01:31:01.461Z,55.50
2022-10-31T01:33:27.784Z,50.88
2022-10-31T01:35:54.330Z,55.60
2022-10-31T01:38:20.662Z,49.38
2022-10-31T01:40:46.990Z,60.33
2022-10-31T01:43:16.481Z,57.88
2022-10-31T01:45:44.192Z,59.03
2022-10-31T01:48:16.356Z,51.88
2022-10-31T01:50:44.681Z,56.72
2022-10-31T01:53:11.982Z,52.38
2022-10-31T01:55:43.081Z,66.68
2022-10-31T01:58:14.190Z,53.08
2022-10-31T02:00:41.537Z,50.03
2022-10-31T02:03:10.978Z,51.80
2022-10-31T02:05:37.377Z,60.85
2022-10-31T02:08:03.738Z,53.90
2022-10-31T02:10:31.429Z,51.25
2022-10-31T02:12:59.225Z,52.10
2022-10-31T02:15:25.813Z,48.13
2022-10-31T02:17:52.528Z,49.78
2022-10-31T02:20:23.673Z,48.53
2022-10-31T02:23:08.095Z,49.78
2022-10-31T02:25:46.348Z,56.80
2022-10-31T02:28:27.779Z,42.13
2022-10-31T02:30:59.469Z,48.40
2022-10-31T02:33:31.336Z,45.13
2022-10-31T02:36:00.656Z,44.75
2022-10-31T02:38:30.052Z,43.58
2022-10-31T02:41:10.305Z,42.97
2022-10-31T02:43:36.608Z,41.42
2022-10-31T02:46:15.659Z,49.85
2022-10-31T02:48:43.107Z,50.05
2022-10-31T02:51:10.972Z,54.30
2022-10-31T02:53:38.391Z,38.08
2022-10-31T02:56:04.734Z,42.15
2022-10-31T02:58:33.622Z,47.95
2022-10-31T03:01:00.097Z,39.20
2022-10-31T03:03:33.671Z,49.83
2022-10-31T03:06:21.531Z,38.58
2022-10-31T03:09:06.655Z,46.63
2022-10-31T03:11:55.514Z,44.72
2022-10-31T03:14:25.340Z,44.60
2022-10-31T03:16:53.023Z,44.10
2022-10-31T03:19:33.973Z,46.50
2022-10-31T03:22:07.628Z,58.03
2022-10-31T03:24:36.667Z,51.78
2022-10-31T03:27:04.535Z,52.15
2022-10-31T03:29:33.716Z,49.90
2022-10-31T03:32:01.472Z,49.90
2022-10-31T03:34:29.260Z,52.65
2022-10-31T03:36:56.899Z,51.20
2022-10-31T03:39:23.672Z,52.85
2022-10-31T03:42:00.914Z,49.08
2022-10-31T03:44:28.760Z,50.90
2022-10-31T03:46:55.378Z,49.22
2022-10-31T03:49:22.438Z,41.38
2022-10-31T03:51:52.292Z,43.78
2022-10-31T03:54:25.023Z,39.95
2022-10-31T03:56:53.420Z,55.50
2022-10-31T03:59:25.573Z,49.55
2022-10-31T04:01:54.632Z,51.25
2022-10-31T04:04:21.259Z,54.90
2022-10-31T04:06:47.938Z,46.53
2022-10-31T04:09:17.470Z,51.40
2022-10-31T04:11:49.051Z,46.92
2022-10-31T04:14:15.393Z,54.05
2022-10-31T04:16:43.547Z,48.85
2022-10-31T04:19:10.282Z,42.45
2022-10-31T04:21:36.606Z,57.95
2022-10-31T04:24:03.075Z,52.95
2022-10-31T04:26:29.457Z,53.47
2022-10-31T04:28:55.854Z,52.40
2022-10-31T04:31:22.273Z,59.33
2022-10-31T04:33:48.613Z,48.35
2022-10-31T04:36:15.021Z,44.33
2022-10-31T04:38:41.341Z,55.58
2022-10-31T04:41:07.681Z,47.85
2022-10-31T04:43:34.040Z,55.05
2022-10-31T04:46:00.394Z,60.65
2022-10-31T04:48:26.960Z,51.45
2022-10-31T04:50:53.288Z,52.97
2022-10-31T04:53:19.612Z,56.78
2022-10-31T04:55:45.976Z,48.38
2022-10-31T04:58:12.392Z,53.13
2022-10-31T05:00:38.839Z,49.60
2022-10-31T05:03:05.151Z,50.92
2022-10-31T05:05:32.088Z,53.95
2022-10-31T05:08:00.746Z,53.90
2022-10-31T05:10:28.519Z,47.33
2022-10-31T05:12:56.256Z,53.05
2022-10-31T05:15:23.284Z,48.03
2022-10-31T05:17:50.025Z,49.40
2022-10-31T05:20:17.018Z,47.80
2022-10-31T05:22:47.107Z,46.55
2022-10-31T05:25:13.972Z,46.75
2022-10-31T05:27:44.488Z,48.25
2022-10-31T05:30:12.739Z,44.80
2022-10-31T05:32:43.517Z,51.03
2022-10-31T05:35:11.458Z,42.05
2022-10-31T05:37:37.955Z,41.30
2022-10-31T05:40:08.175Z,47.38
2022-10-31T05:42:35.033Z,41.35
2022-10-31T05:45:01.565Z,37.38
2022-10-31T05:47:27.875Z,39.55
2022-10-31T05:49:54.243Z,42.70
2022-10-31T05:52:20.590Z,41.72
2022-10-31T05:54:47.001Z,32.78
2022-10-31T05:57:13.311Z,33.35
2022-10-31T05:59:39.644Z,39.75
2022-10-31T06:02:06.011Z,37.58
2022-10-31T06:04:32.388Z,29.98
2022-10-31T06:06:58.917Z,35.17
2022-10-31T06:09:25.323Z,39.70
2022-10-31T06:11:51.677Z,40.35
2022-10-31T06:14:18.108Z,32.28
2022-10-31T06:16:44.519Z,42.28
2022-10-31T06:19:10.922Z,35.83
2022-10-31T06:21:37.269Z,35.67
2022-10-31T06:24:03.742Z,33.28
2022-10-31T06:26:30.087Z,28.80
2022-10-31T06:29:01.267Z,31.08
2022-10-31T06:31:30.620Z,35.92
2022-10-31T06:34:03.675Z,33.20
2022-10-31T06:36:30.027Z,32.70
2022-10-31T06:38:56.444Z,30.98
2022-10-31T06:41:22.770Z,27.38
2022-10-31T06:43:49.188Z,33.13
2022-10-31T06:46:15.508Z,35.55
2022-10-31T06:48:42.909Z,27.73
2022-10-31T06:51:12.980Z,28.00
2022-10-31T06:53:39.321Z,28.25
2022-10-31T06:56:05.867Z,33.78
2022-10-31T06:58:32.199Z,27.08
2022-10-31T07:01:01.904Z,28.42
2022-10-31T07:03:28.501Z,33.58
2022-10-31T07:05:57.922Z,25.55
2022-10-31T07:08:27.475Z,29.38
2022-10-31T07:10:55.051Z,25.80
2022-10-31T07:13:27.805Z,21.90
2022-10-31T07:15:55.145Z,24.90
2022-10-31T07:18:22.122Z,27.67
2022-10-31T07:20:48.717Z,24.05
2022-10-31T07:23:15.105Z,26.45
2022-10-31T07:25:41.483Z,30.30
2022-10-31T07:28:08.500Z,29.05
2022-10-31T07:30:35.114Z,19.15
2022-10-31T07:33:01.458Z,39.75
2022-10-31T07:35:28.601Z,27.25
2022-10-31T07:37:55.799Z,26.13
2022-10-31T07:40:22.698Z,23.55
2022-10-31T07:42:50.002Z,22.00
2022-10-31T07:45:17.815Z,24.23
2022-10-31T07:47:45.154Z,22.05
2022-10-31T07:50:12.668Z,23.05
2022-10-31T07:52:39.221Z,28.77
2022-10-31T07:55:06.464Z,21.23
2022-10-31T07:57:34.624Z,30.73
2022-10-31T08:00:01.483Z,23.50
2022-10-31T08:02:27.856Z,28.23
2022-10-31T08:04:57.173Z,23.27
2022-10-31T08:07:27.275Z,27.38
2022-10-31T08:09:53.704Z,27.50
2022-10-31T08:12:20.387Z,32.30
2022-10-31T08:14:46.837Z,29.55
2022-10-31T08:17:13.188Z,28.30
2022-10-31T08:19:39.487Z,31.65
2022-10-31T08:22:05.886Z,23.20
2022-10-31T08:24:32.273Z,33.00
2022-10-31T08:26:58.606Z,29.08
2022-10-31T08:29:24.991Z,35.80
2022-10-31T08:31:51.365Z,26.58
2022-10-31T08:34:17.757Z,36.60
2022-10-31T08:36:45.898Z,29.45
2022-10-31T08:39:12.254Z,31.27
2022-10-31T08:41:38.577Z,35.40
2022-10-31T08:44:04.998Z,31.45
2022-10-31T08:46:31.374Z,36.13
2022-10-31T08:48:57.710Z,36.08
2022-10-31T08:51:24.093Z,38.05
2022-10-31T08:53:50.429Z,38.65
2022-10-31T08:56:16.806Z,40.78
2022-10-31T08:58:45.523Z,34.53
2022-10-31T09:01:12.141Z,45.50
2022-10-31T09:03:38.643Z,36.10
2022-10-31T09:06:09.621Z,33.10
2022-10-31T09:08:36.632Z,37.28
2022-10-31T09:11:03.597Z,31.63
2022-10-31T09:13:29.950Z,33.05
2022-10-31T09:15:59.255Z,31.70
2022-10-31T09:18:25.964Z,30.88
2022-10-31T09:20:52.291Z,28.65
2022-10-31T09:23:20.347Z,30.05
2022-10-31T09:25:50.422Z,21.13
2022-10-31T09:28:18.983Z,24.58
2022-10-31T09:30:47.430Z,20.90
2022-10-31T09:33:14.055Z,13.50
2022-10-31T09:35:41.137Z,25.92
2022-10-31T09:38:09.811Z,13.38
2022-10-31T09:40:40.525Z,13.45
2022-10-31T09:43:06.877Z,14.77
2022-10-31T09:45:36.179Z,16.15
2022-10-31T09:48:41.384Z,10.00
2022-10-31T09:51:24.296Z,14.63
2022-10-31T09:53:52.715Z,12.80
2022-10-31T09:56:20.879Z,14.15
2022-10-31T09:59:07.470Z,12.00
2022-10-31T10:01:55.248Z,13.68
2022-10-31T10:04:43.645Z,15.05
2022-10-31T10:07:28.954Z,15.75
2022-10-31T10:09:55.339Z,14.93
2022-10-31T10:12:21.722Z,12.80
2022-10-31T10:15:03.398Z,17.33
2022-10-31T10:17:38.721Z,19.77
2022-10-31T10:20:26.244Z,12.82
2022-10-31T10:23:03.523Z,17.13
2022-10-31T10:25:35.993Z,19.45
2022-10-31T10:28:05.392Z,19.15
2022-10-31T10:30:34.819Z,16.67
2022-10-31T10:33:03.989Z,18.88
2022-10-31T10:35:32.256Z,23.52
2022-10-31T10:38:17.015Z,20.13
2022-10-31T10:40:43.523Z,23.40
2022-10-31T10:43:25.273Z,21.40
2022-10-31T10:46:33.606Z,17.58
2022-10-31T10:49:19.665Z,17.48
2022-10-31T10:52:01.878Z,18.05
2022-10-31T10:54:33.539Z,14.15
2022-10-31T10:57:09.182Z,11.63
2022-10-31T10:59:35.957Z,15.57
2022-10-31T11:02:04.406Z,12.75
2022-10-31T11:04:34.769Z,19.10
2022-10-31T11:07:06.268Z,9.60
2022-10-31T11:09:32.841Z,13.30
2022-10-31T11:12:01.613Z,15.25
2022-10-31T11:14:28.524Z,14.05
2022-10-31T11:17:15.119Z,14.48
2022-10-31T11:19:41.525Z,15.98
2022-10-31T11:22:09.243Z,15.30
2022-10-31T11:24:42.461Z,12.27
2022-10-31T11:27:16.549Z,9.70
2022-10-31T11:29:42.974Z,6.88
2022-10-31T11:32:17.692Z,12.77
2022-10-31T11:34:46.876Z,12.57
2022-10-31T11:37:17.063Z,13.52
2022-10-31T11:39:45.284Z,9.48
2022-10-31T11:42:12.479Z,16.60
2022-10-31T11:44:42.695Z,14.85
2022-10-31T11:47:12.813Z,8.75
2022-10-31T11:49:40.916Z,6.68
2022-10-31T11:52:09.586Z,12.80
2022-10-31T11:55:05.632Z,11.50
2022-10-31T11:57:46.604Z,12.52
2022-10-31T12:02:39.303Z,7.55
2022-10-31T12:05:09.097Z,10.30
2022-10-31T12:07:35.445Z,7.18
2022-10-31T12:10:01.907Z,9.75
2022-10-31T12:12:49.739Z,9.73
2022-10-31T12:15:35.578Z,7.75
2022-10-31T12:18:28.395Z,6.70
2022-10-31T12:20:54.707Z,9.10
2022-10-31T12:23:24.039Z,8.80
2022-10-31T12:26:09.724Z,8.23
2022-10-31T12:28:45.419Z,6.30
2022-10-31T12:31:14.415Z,7.07
2022-10-31T12:33:59.299Z,9.63
2022-10-31T12:36:28.621Z,7.75
2022-10-31T12:39:14.552Z,6.07
2022-10-31T12:41:51.286Z,7.32
2022-10-31T12:44:36.290Z,5.85
2022-10-31T12:47:02.632Z,6.22
2022-10-31T12:49:31.954Z,6.75
2022-10-31T12:52:01.388Z,10.35
2022-10-31T12:54:33.890Z,5.70
2022-10-31T12:57:07.522Z,8.95
2022-10-31T12:59:48.641Z,6.75
2022-10-31T13:02:19.599Z,6.97
2022-10-31T13:04:45.985Z,10.32
2022-10-31T13:07:16.436Z,7.78
2022-10-31T13:10:06.278Z,10.00
2022-10-31T13:12:36.482Z,10.53
2022-10-31T13:15:16.677Z,8.88
2022-10-31T13:18:09.425Z,10.30
2022-10-31T13:20:40.160Z,15.65
2022-10-31T13:25:47.467Z,7.00
2022-10-31T13:28:24.380Z,5.20
2022-10-31T13:30:51.307Z,6.55
2022-10-31T13:33:20.678Z,4.68
2022-10-31T13:35:50.326Z,6.88
2022-10-31T13:38:19.504Z,9.23
2022-10-31T13:41:09.458Z,6.95
2022-10-31T13:43:48.759Z,9.93
2022-10-31T13:46:23.572Z,11.52
2022-10-31T13:48:50.013Z,9.80
2022-10-31T13:51:25.026Z,8.88
2022-10-31T13:53:51.348Z,9.18
2022-10-31T13:56:19.633Z,8.20
2022-10-31T13:58:58.480Z,9.70
2022-10-31T14:01:25.038Z,8.77
2022-10-31T14:04:25.685Z,8.77
2022-10-31T14:07:00.577Z,7.95
2022-10-31T14:09:31.612Z,8.70
2022-10-31T14:11:59.959Z,11.75
2022-10-31T14:14:31.029Z,6.90
2022-10-31T14:16:58.074Z,7.55
2022-10-31T14:19:24.502Z,7.97
2022-10-31T14:21:51.650Z,6.50
2022-10-31T14:24:24.247Z,12.15
2022-10-31T14:26:57.796Z,10.85
2022-10-31T14:29:30.316Z,6.43
2022-10-31T14:31:56.676Z,15.98
2022-10-31T14:34:29.115Z,13.02
2022-10-31T14:37:01.762Z,11.85
2022-10-31T14:39:52.853Z,8.52
2022-10-31T14:44:54.599Z,9.35
2022-10-31T14:47:39.818Z,12.30
2022-10-31T14:50:15.373Z,11.02
2022-10-31T14:52:45.643Z,6.70
2022-10-31T14:55:13.111Z,12.07
2022-10-31T14:57:43.740Z,7.10
2022-10-31T15:00:17.158Z,10.77
2022-10-31T15:02:54.426Z,9.48
2022-10-31T15:05:20.923Z,7.65
2022-10-31T15:07:52.651Z,14.00
2022-10-31T15:10:30.735Z,11.48
2022-10-31T15:13:08.544Z,11.38
2022-10-31T15:15:35.557Z,7.63
2022-10-31T15:18:04.466Z,9.77
2022-10-31T15:20:34.766Z,19.33
2022-10-31T15:23:01.398Z,10.85
2022-10-31T15:25:31.329Z,8.65
2022-10-31T15:27:57.851Z,5.47
2022-10-31T15:30:25.631Z,12.40
2022-10-31T15:32:58.223Z,7.25
2022-10-31T15:35:31.744Z,10.05
2022-10-31T15:37:59.299Z,14.52
2022-10-31T15:40:26.857Z,15.60
2022-10-31T15:43:04.210Z,10.18
2022-10-31T15:45:31.331Z,14.10
2022-10-31T15:47:58.757Z,10.07
2022-10-31T15:50:31.133Z,9.60
2022-10-31T15:52:57.841Z,14.77
2022-10-31T15:55:30.728Z,15.40
2022-10-31T15:57:59.542Z,21.77
2022-10-31T16:00:30.860Z,14.98
2022-10-31T16:03:23.468Z,7.88
2022-10-31T16:05:51.280Z,10.20
2022-10-31T16:08:36.615Z,9.00
2022-10-31T16:11:16.642Z,12.88
2022-10-31T16:13:55.200Z,9.25
2022-10-31T16:16:34.549Z,12.38
2022-10-31T16:19:02.594Z,11.90
2022-10-31T16:21:36.251Z,7.00
2022-10-31T16:24:06.400Z,13.18
2022-10-31T16:26:33.028Z,14.25
2022-10-31T16:29:04.937Z,9.13
2022-10-31T16:31:37.145Z,10.18
2022-10-31T16:34:04.883Z,11.45
2022-10-31T16:36:38.948Z,17.42
2022-10-31T16:39:05.615Z,16.50
2022-10-31T16:41:32.777Z,12.20
2022-10-31T16:44:01.579Z,14.52
2022-10-31T16:46:28.148Z,13.43
2022-10-31T16:48:55.089Z,11.07
2022-10-31T16:51:21.417Z,14.80
2022-10-31T16:53:47.824Z,8.07
2022-10-31T16:56:19.020Z,15.15
2022-10-31T16:58:48.084Z,13.18
2022-10-31T17:01:14.539Z,18.40
2022-10-31T17:03:41.134Z,12.85
2022-10-31T17:06:09.760Z,10.00
2022-10-31T17:08:36.138Z,12.25
2022-10-31T17:11:02.899Z,15.65
2022-10-31T17:13:31.101Z,13.10
2022-10-31T17:16:03.973Z,8.95
2022-10-31T17:18:30.964Z,15.27
2022-10-31T17:21:02.364Z,13.40
2022-10-31T17:23:29.297Z,19.33
2022-10-31T17:25:56.071Z,14.77
2022-10-31T17:28:22.596Z,18.95
2022-10-31T17:30:49.063Z,20.17
2022-10-31T17:33:16.407Z,12.52
2022-10-31T17:35:44.700Z,14.40
2022-10-31T17:38:11.378Z,22.10
2022-10-31T17:40:39.361Z,14.93
2022-10-31T17:43:05.766Z,11.05
2022-10-31T17:45:32.476Z,16.48
2022-10-31T17:47:58.844Z,15.02
2022-10-31T17:50:26.180Z,14.25
2022-10-31T17:52:53.035Z,14.40
2022-10-31T17:55:19.401Z,16.67
2022-10-31T17:57:46.135Z,11.25
2022-10-31T18:00:14.952Z,13.48
2022-10-31T18:02:41.463Z,10.23
2022-10-31T18:05:08.576Z,15.40
2022-10-31T18:07:38.171Z,16.02
2022-10-31T18:10:05.024Z,17.65
2022-10-31T18:12:32.350Z,16.50
2022-10-31T18:14:58.856Z,14.02
2022-10-31T18:17:25.282Z,15.57
2022-10-31T18:19:51.689Z,19.45
2022-10-31T18:22:18.353Z,12.43
2022-10-31T18:24:44.718Z,10.85
2022-10-31T18:27:11.100Z,20.45
2022-10-31T18:29:37.475Z,8.68
2022-10-31T18:32:09.040Z,15.93
2022-10-31T18:34:35.898Z,14.18
2022-10-31T18:37:02.280Z,11.25
2022-10-31T18:39:28.676Z,15.32
2022-10-31T18:41:55.245Z,10.23
2022-10-31T18:44:21.729Z,8.95
2022-10-31T18:46:48.212Z,12.85
2022-10-31T18:49:15.531Z,12.52
2022-10-31T18:51:41.948Z,14.10
2022-10-31T18:54:08.366Z,12.75
2022-10-31T18:56:34.699Z,11.40
2022-10-31T18:59:04.315Z,14.27
2022-10-31T19:01:31.217Z,12.00
2022-10-31T19:03:58.329Z,19.70
2022-10-31T19:06:25.404Z,17.10
2022-10-31T19:08:56.744Z,14.80
2022-10-31T19:11:23.230Z,11.85
2022-10-31T19:13:49.545Z,15.75
2022-10-31T19:16:16.684Z,15.35
2022-10-31T19:18:43.716Z,10.85
2022-10-31T19:21:11.226Z,13.95
2022-10-31T19:23:38.016Z,12.25
2022-10-31T19:26:04.900Z,15.45
2022-10-31T19:28:35.031Z,15.80
2022-10-31T19:31:01.408Z,10.35
2022-10-31T19:33:33.397Z,10.57
2022-10-31T19:36:09.902Z,10.35
2022-10-31T19:38:37.494Z,18.85
2022-10-31T19:41:05.353Z,10.48
2022-10-31T19:43:31.737Z,17.75
2022-10-31T19:45:59.301Z,13.90
2022-10-31T19:48:26.032Z,10.35
2022-10-31T19:50:58.447Z,12.35
2022-10-31T19:53:24.970Z,12.07
2022-10-31T19:55:51.299Z,17.20
2022-10-31T19:58:18.031Z,12.52
2022-10-31T20:00:44.592Z,15.82
2022-10-31T20:03:11.076Z,8.90
2022-10-31T20:05:41.843Z,8.82
2022-10-31T20:08:18.403Z,11.43
2022-10-31T20:10:55.678Z,12.95
2022-10-31T20:13:22.318Z,11.52
2022-10-31T20:15:48.848Z,9.25
2022-10-31T20:18:15.230Z,6.53
2022-10-31T20:20:41.701Z,11.10
2022-10-31T20:23:08.053Z,17.30
2022-10-31T20:25:34.420Z,11.93
2022-10-31T20:28:03.123Z,9.32
2022-10-31T20:30:30.492Z,13.20
2022-10-31T20:32:56.878Z,12.88
2022-10-31T20:35:23.191Z,10.45
2022-10-31T20:37:49.500Z,11.82
2022-10-31T20:40:16.022Z,10.75
2022-10-31T20:42:42.373Z,8.80
2022-10-31T20:45:09.039Z,11.02
2022-10-31T20:47:35.993Z,10.90
2022-10-31T20:50:02.417Z,16.00
2022-10-31T20:52:28.838Z,15.40
2022-10-31T20:54:55.224Z,6.85
2022-10-31T20:57:21.619Z,12.32
2022-10-31T20:59:48.041Z,14.50
2022-10-31T21:02:14.516Z,8.93
2022-10-31T21:04:41.063Z,14.85
2022-10-31T21:07:07.464Z,9.23
2022-10-31T21:09:33.827Z,11.40
2022-10-31T21:12:00.188Z,10.10
2022-10-31T21:14:26.553Z,7.70
2022-10-31T21:16:52.991Z,9.65
2022-10-31T21:19:19.367Z,9.77
2022-10-31T21:21:45.939Z,13.55
2022-10-31T21:24:13.711Z,8.57
2022-10-31T21:26:41.613Z,11.15
2022-10-31T21:29:08.513Z,13.27
2022-10-31T21:31:35.774Z,13.02
2022-10-31T21:34:02.446Z,11.40
2022-10-31T21:36:28.808Z,8.57
2022-10-31T21:38:55.878Z,9.57
2022-10-31T21:41:22.936Z,10.43
2022-10-31T21:43:50.199Z,8.38
2022-10-31T21:46:17.976Z,10.15
2022-10-31T21:48:44.711Z,12.18
2022-10-31T21:51:13.576Z,7.93
2022-10-31T21:53:58.524Z,8.63
2022-10-31T21:56:25.321Z,8.10
2022-10-31T21:58:52.515Z,11.52
2022-10-31T22:01:19.381Z,9.68
2022-10-31T22:03:45.967Z,12.60
2022-10-31T22:06:13.284Z,8.68
2022-10-31T22:08:40.842Z,12.38
2022-10-31T22:11:16.242Z,15.02
2022-10-31T22:13:43.822Z,11.93
2022-10-31T22:16:17.446Z,8.20
2022-10-31T22:18:44.160Z,12.85
2022-10-31T22:21:11.816Z,7.45
2022-10-31T22:23:38.590Z,9.45
2022-10-31T22:26:05.702Z,15.43
2022-10-31T22:28:32.784Z,13.65
2022-10-31T22:30:59.406Z,12.52
2022-10-31T22:33:25.908Z,11.27
2022-10-31T22:35:52.256Z,10.10
2022-10-31T22:38:18.584Z,11.90
2022-10-31T22:40:44.923Z,10.30
2022-10-31T22:43:11.327Z,14.82
2022-10-31T22:45:39.037Z,10.65
2022-10-31T22:48:05.579Z,14.05
2022-10-31T22:50:32.484Z,12.65
2022-10-31T22:52:58.847Z,10.45
2022-10-31T22:55:25.212Z,13.38
2022-10-31T22:57:51.609Z,9.85
2022-10-31T23:00:18.497Z,16.95
2022-10-31T23:02:44.855Z,10.32
2022-10-31T23:05:11.370Z,11.85
2022-10-31T23:07:39.681Z,12.40
2022-10-31T23:10:06.332Z,15.65
2022-10-31T23:12:51.407Z,10.70
2022-10-31T23:15:17.811Z,12.32
2022-10-31T23:17:44.148Z,10.15
2022-10-31T23:20:10.625Z,13.02
2022-10-31T23:22:37.006Z,12.73
2022-10-31T23:25:03.966Z,14.00
2022-10-31T23:27:30.357Z,13.85
2022-10-31T23:29:57.616Z,8.15
2022-10-31T23:32:25.769Z,14.13
2022-10-31T23:34:53.559Z,11.07
2022-10-31T23:37:20.799Z,8.25
2022-10-31T23:39:47.658Z,11.85
2022-10-31T23:42:15.526Z,10.38
2022-10-31T23:44:42.184Z,8.73
2022-10-31T23:47:08.779Z,12.45
2022-10-31T23:49:35.382Z,9.85
2022-10-31T23:52:02.089Z,10.43
2022-10-31T23:54:28.601Z,16.70
2022-10-31T23:56:55.459Z,10.75
2022-10-31T23:59:22.838Z,8.52
